Time;durP1;ratioP1;P1;durP2;ratioP2;P2;SDS_P1;SDS_P2;PMS_P1;PMS_P2;Temp;Humidity;BMP_temperature;BMP_pressure;BME280_temperature;BME280_humidity;BME280_pressure;Samples;Min_cycle;Max_cycle;Signal;HPM_P1;HPM_P2
2024/03/21 00:02:04;;;;;;;9.43;6.13;;;7.50;97.00;;;;;;5031313;28;20580;-84
2024/03/21 00:04:30;;;;;;;10.18;6.13;;;7.40;97.50;;;;;;5029466;28;21462;-85
2024/03/21 00:06:57;;;;;;;7.97;5.82;;;7.30;97.80;;;;;;5032365;28;20202;-86
2024/03/21 00:09:24;;;;;;;10.07;6.03;;;7.40;97.90;;;;;;5027850;28;20198;-85
2024/03/21 00:11:50;;;;;;;9.68;5.57;;;7.40;97.70;;;;;;5028707;28;20199;-85
2024/03/21 00:14:16;;;;;;;7.95;4.93;;;7.50;97.50;;;;;;5029908;28;20207;-85
2024/03/21 00:16:43;;;;;;;8.65;5.90;;;7.50;97.30;;;;;;5034185;28;20199;-85
2024/03/21 00:19:09;;;;;;;8.73;5.45;;;7.50;97.20;;;;;;5032085;28;20198;-84
2024/03/21 00:21:36;;;;;;;6.68;5.57;;;7.40;97.20;;;;;;5039372;28;20205;-84
2024/03/21 00:24:02;;;;;;;7.28;5.50;;;7.40;97.20;;;;;;5028571;28;20204;-85
2024/03/21 00:26:30;;;;;;;11.23;5.55;;;7.30;97.30;;;;;;5026120;28;20357;-84
2024/03/21 00:28:57;;;;;;;6.97;5.50;;;7.30;97.80;;;;;;5034677;28;20206;-85
2024/03/21 00:31:24;;;;;;;7.03;5.00;;;7.40;97.50;;;;;;5031884;28;20206;-85
2024/03/21 00:33:50;;;;;;;7.70;5.95;;;7.40;97.10;;;;;;5031431;28;20924;-85
2024/03/21 00:36:17;;;;;;;7.32;5.50;;;7.50;96.60;;;;;;5023895;28;20210;-84
2024/03/21 00:38:43;;;;;;;9.60;6.03;;;7.50;96.40;;;;;;5032327;28;20207;-85
2024/03/21 00:41:10;;;;;;;7.05;5.63;;;7.40;96.30;;;;;;5039968;28;20697;-85
2024/03/21 00:43:37;;;;;;;10.07;5.70;;;7.30;96.70;;;;;;5032098;28;20222;-84
2024/03/21 00:46:04;;;;;;;7.50;5.43;;;7.10;97.10;;;;;;5041252;28;20221;-86
2024/03/21 00:48:30;;;;;;;6.90;5.32;;;7.00;97.30;;;;;;5032272;28;20199;-85
2024/03/21 00:50:57;;;;;;;6.45;5.60;;;7.00;97.70;;;;;;5031280;28;20194;-85
2024/03/21 00:53:22;;;;;;;6.20;5.13;;;7.00;97.90;;;;;;5028076;28;20205;-86
2024/03/21 00:55:49;;;;;;;5.93;4.53;;;7.00;97.90;;;;;;5030070;28;20207;-85
2024/03/21 00:58:15;;;;;;;5.75;5.00;;;7.10;97.50;;;;;;5021512;28;20207;-85
2024/03/21 01:00:43;;;;;;;6.05;5.43;;;7.10;97.30;;;;;;5026002;28;20564;-84
2024/03/21 01:03:09;;;;;;;5.60;4.85;;;7.00;97.40;;;;;;5035326;28;20194;-85
2024/03/21 01:05:36;;;;;;;5.78;4.95;;;7.00;97.50;;;;;;5017920;28;20702;-84
2024/03/21 01:08:02;;;;;;;6.95;5.35;;;7.10;97.20;;;;;;5032542;28;20205;-85
2024/03/21 01:10:29;;;;;;;7.95;5.57;;;7.00;96.90;;;;;;5034559;28;20237;-85
2024/03/21 01:12:54;;;;;;;6.13;5.05;;;6.90;97.10;;;;;;5030336;28;20195;-84
2024/03/21 01:15:21;;;;;;;6.63;4.95;;;6.80;97.60;;;;;;5032690;28;20202;-85
2024/03/21 01:17:49;;;;;;;5.18;4.68;;;6.80;97.90;;;;;;5034347;28;20194;-84
2024/03/21 01:20:16;;;;;;;7.05;5.05;;;6.70;98.00;;;;;;5035179;28;20861;-85
2024/03/21 01:22:41;;;;;;;7.13;5.50;;;6.70;98.20;;;;;;5041343;28;20199;-85
2024/03/21 01:25:09;;;;;;;6.05;5.03;;;6.70;98.20;;;;;;5034982;28;20233;-84
2024/03/21 01:27:35;;;;;;;7.97;5.10;;;6.70;98.20;;;;;;5027916;28;20199;-84
2024/03/21 01:30:02;;;;;;;6.70;5.10;;;6.70;98.30;;;;;;5028164;28;20203;-86
2024/03/21 01:32:27;;;;;;;6.57;4.97;;;6.70;98.30;;;;;;5033193;28;20195;-85
2024/03/21 01:34:56;;;;;;;8.73;4.63;;;6.60;98.40;;;;;;5031090;28;20241;-84
2024/03/21 01:37:22;;;;;;;6.95;4.88;;;6.60;98.40;;;;;;5028903;28;20198;-84
2024/03/21 01:39:49;;;;;;;6.53;4.90;;;6.60;98.40;;;;;;5030645;28;20206;-85
2024/03/21 01:42:18;;;;;;;6.35;4.80;;;6.60;98.60;;;;;;5032172;28;20289;-85
2024/03/21 01:45:00;;;;;;;6.13;4.97;;;6.60;98.30;;;;;;5030176;28;20234;-85
2024/03/21 01:47:27;;;;;;;6.40;4.82;;;6.60;98.20;;;;;;5035792;28;20213;-85
2024/03/21 01:49:56;;;;;;;5.55;4.22;;;6.70;98.00;;;;;;5026307;28;20217;-85
2024/03/21 01:52:23;;;;;;;5.53;4.15;;;6.70;98.00;;;;;;5028142;28;20195;-84
2024/03/21 01:54:50;;;;;;;5.70;4.53;;;6.70;97.80;;;;;;5024447;28;20203;-85
2024/03/21 01:57:16;;;;;;;8.50;4.80;;;6.60;97.80;;;;;;5025430;28;20584;-85
2024/03/21 01:59:44;;;;;;;6.80;4.68;;;6.60;97.90;;;;;;5029508;28;20198;-84
2024/03/21 02:02:11;;;;;;;5.20;4.53;;;6.50;98.00;;;;;;5038145;28;20189;-84
2024/03/21 02:04:38;;;;;;;7.32;4.38;;;6.40;98.10;;;;;;5030033;28;20206;-84
2024/03/21 02:07:05;;;;;;;7.35;4.80;;;6.40;98.40;;;;;;5037709;28;20205;-84
2024/03/21 02:09:32;;;;;;;5.40;4.35;;;6.40;98.50;;;;;;5035501;28;20668;-85
2024/03/21 02:12:06;;;;;;;6.85;4.45;;;6.30;98.60;;;;;;5035698;28;20206;-85
2024/03/21 02:14:35;;;;;;;5.03;3.85;;;6.30;98.80;;;;;;5029877;28;20209;-85
2024/03/21 02:17:01;;;;;;;6.47;4.18;;;6.30;98.90;;;;;;5029204;28;20656;-84
2024/03/21 02:19:28;;;;;;;7.05;4.22;;;6.30;98.90;;;;;;5023673;28;20206;-85
2024/03/21 02:24:40;;;;;;;4.40;3.80;;;6.40;98.50;;;;;;5042154;28;20189;-84
2024/03/21 02:27:07;;;;;;;4.63;3.72;;;6.40;98.40;;;;;;5038450;28;20209;-85
2024/03/21 02:29:33;;;;;;;4.65;3.88;;;6.30;98.40;;;;;;5037088;28;20204;-84
2024/03/21 02:31:59;;;;;;;8.40;3.80;;;6.30;98.40;;;;;;5038795;28;20573;-84
2024/03/21 02:34:25;;;;;;;5.75;3.65;;;6.20;98.60;;;;;;5036938;28;20202;-85
2024/03/21 02:36:52;;;;;;;5.68;4.22;;;6.20;98.70;;;;;;5034180;28;20205;-84
2024/03/21 02:39:20;;;;;;;4.80;3.75;;;6.20;98.80;;;;;;5031300;28;20203;-84
2024/03/21 02:41:47;;;;;;;4.68;3.92;;;6.20;98.90;;;;;;5028645;28;20243;-84
2024/03/21 02:44:13;;;;;;;3.85;3.42;;;6.30;98.80;;;;;;5034156;28;20222;-84
2024/03/21 02:46:41;;;;;;;4.53;3.50;;;6.30;98.60;;;;;;5038542;28;20226;-84
2024/03/21 02:49:07;;;;;;;6.40;3.47;;;6.30;98.40;;;;;;5035449;28;20195;-85
2024/03/21 02:51:34;;;;;;;3.90;3.50;;;6.30;98.30;;;;;;5029449;28;20202;-85
2024/03/21 02:54:00;;;;;;;4.85;3.40;;;6.30;98.20;;;;;;5032084;28;20560;-84
2024/03/21 02:56:30;;;;;;;4.30;3.47;;;6.30;98.20;;;;;;5029866;28;20208;-84
2024/03/21 02:58:59;;;;;;;6.57;3.63;;;6.30;98.20;;;;;;5032597;28;20198;-85
2024/03/21 03:01:25;;;;;;;4.23;3.50;;;6.30;98.60;;;;;;5034022;28;20563;-84
2024/03/21 03:03:52;;;;;;;5.07;3.67;;;6.20;98.50;;;;;;5033359;28;20194;-85
2024/03/21 03:06:19;;;;;;;4.57;3.70;;;6.20;98.60;;;;;;5036390;28;20230;-84
2024/03/21 03:08:46;;;;;;;4.80;3.60;;;6.00;98.90;;;;;;5030108;28;20836;-84
2024/03/21 03:11:11;;;;;;;6.30;3.67;;;6.00;99.10;;;;;;5042377;28;20289;-85
2024/03/21 03:13:40;;;;;;;5.93;3.80;;;6.00;99.40;;;;;;5036719;28;20308;-84
2024/03/21 03:16:05;;;;;;;4.50;3.33;;;5.90;99.70;;;;;;5032137;28;20198;-84
2024/03/21 03:18:32;;;;;;;4.40;3.70;;;5.90;99.80;;;;;;5027830;28;20199;-84
2024/03/21 03:20:58;;;;;;;6.85;3.65;;;5.90;99.90;;;;;;5033437;28;20706;-84
2024/03/21 03:23:25;;;;;;;5.95;3.85;;;6.00;99.90;;;;;;5028885;28;20213;-84
2024/03/21 03:25:51;;;;;;;5.32;3.38;;;6.00;99.90;;;;;;5025440;28;20215;-84
2024/03/21 03:28:17;;;;;;;5.75;3.55;;;6.00;99.90;;;;;;5037577;28;20201;-84
2024/03/21 03:30:45;;;;;;;5.30;3.60;;;6.00;99.90;;;;;;5037634;28;20201;-85
2024/03/21 03:35:53;;;;;;;5.88;3.25;;;6.10;99.90;;;;;;5032201;28;20191;-84
2024/03/21 03:38:21;;;;;;;4.60;2.83;;;6.10;99.90;;;;;;5033871;28;20591;-85
2024/03/21 03:40:48;;;;;;;5.80;3.40;;;6.20;99.90;;;;;;5028596;28;20198;-84
2024/03/21 03:43:15;;;;;;;4.35;3.20;;;6.20;99.70;;;;;;5037713;28;20221;-84
2024/03/21 03:45:43;;;;;;;5.85;2.95;;;6.20;99.60;;;;;;5033441;28;20257;-85
2024/03/21 03:48:10;;;;;;;4.18;3.20;;;6.20;99.60;;;;;;5032139;28;20647;-84
2024/03/21 03:50:37;;;;;;;3.88;2.95;;;6.20;99.70;;;;;;5032083;28;20260;-84
2024/03/21 03:53:03;;;;;;;4.60;3.10;;;6.20;99.70;;;;;;5032850;28;20198;-85
2024/03/21 03:55:30;;;;;;;3.38;2.80;;;6.30;99.60;;;;;;5033217;28;20261;-85
2024/03/21 03:57:56;;;;;;;4.10;2.90;;;6.20;99.50;;;;;;5035352;28;20207;-85
2024/03/21 04:00:22;;;;;;;3.45;3.13;;;6.20;99.50;;;;;;5030475;28;20199;-84
2024/03/21 04:02:49;;;;;;;4.28;2.60;;;6.20;99.70;;;;;;5030164;28;20718;-86
2024/03/21 04:05:17;;;;;;;3.70;3.00;;;6.20;99.70;;;;;;5023566;28;20225;-84
2024/03/21 04:07:44;;;;;;;3.17;2.50;;;6.20;99.60;;;;;;5035337;28;20345;-84
2024/03/21 04:10:10;;;;;;;4.38;3.10;;;6.20;99.70;;;;;;5036968;28;20217;-84
2024/03/21 04:12:36;;;;;;;6.23;2.97;;;6.30;99.50;;;;;;5030405;28;20202;-85
2024/03/21 04:15:04;;;;;;;5.07;2.80;;;6.40;99.20;;;;;;5032744;28;20697;-84
2024/03/21 04:17:29;;;;;;;3.47;2.90;;;6.40;99.10;;;;;;5030467;28;20233;-84
2024/03/21 04:19:56;;;;;;;7.05;3.13;;;6.30;99.20;;;;;;5020414;28;20566;-84
2024/03/21 04:22:23;;;;;;;4.32;2.60;;;6.40;99.20;;;;;;5027904;28;20203;-84
2024/03/21 04:24:51;;;;;;;4.40;2.70;;;6.40;99.30;;;;;;5039958;28;20242;-85
2024/03/21 04:27:16;;;;;;;4.45;2.55;;;6.40;99.30;;;;;;5033686;28;20222;-84
2024/03/21 04:29:43;;;;;;;3.13;2.83;;;6.30;99.40;;;;;;5035682;28;20194;-85
2024/03/21 04:32:14;;;;;;;3.35;2.50;;;6.40;99.40;;;;;;5027057;28;20252;-84
2024/03/21 04:34:41;;;;;;;5.05;2.70;;;6.50;99.40;;;;;;5034905;28;20276;-84
2024/03/21 04:37:13;;;;;;;4.53;2.42;;;6.50;98.90;;;;;;5027283;28;20283;-84
2024/03/21 04:39:41;;;;;;;4.47;2.65;;;6.60;98.90;;;;;;5028257;28;20664;-86
2024/03/21 04:42:08;;;;;;;3.33;2.55;;;6.60;98.90;;;;;;5032171;28;20211;-84
2024/03/21 04:44:35;;;;;;;3.00;2.70;;;6.70;99.10;;;;;;5034930;28;20218;-85
2024/03/21 04:47:01;;;;;;;3.25;2.50;;;6.70;99.00;;;;;;5029769;28;20222;-84
2024/03/21 04:49:27;;;;;;;3.97;2.50;;;6.80;98.90;;;;;;5032019;28;20209;-85
2024/03/21 04:51:53;;;;;;;3.08;2.35;;;7.00;98.40;;;;;;5038626;28;20226;-84
2024/03/21 04:54:20;;;;;;;7.75;3.00;;;7.00;98.10;;;;;;5037672;28;20639;-84
2024/03/21 04:56:47;;;;;;;4.05;2.40;;;7.10;97.90;;;;;;5036409;28;20209;-84
2024/03/21 04:59:14;;;;;;;4.75;3.47;;;7.10;97.90;;;;;;5036422;28;20230;-84
2024/03/21 05:01:40;;;;;;;5.13;3.47;;;7.10;97.80;;;;;;5033873;28;20678;-84
2024/03/21 05:04:07;;;;;;;3.95;3.10;;;7.00;97.90;;;;;;5033560;28;20202;-84
2024/03/21 05:06:33;;;;;;;3.20;2.67;;;7.10;98.10;;;;;;5031071;28;20218;-84
2024/03/21 05:08:59;;;;;;;3.42;2.72;;;7.10;97.60;;;;;;5036716;28;20575;-84
2024/03/21 05:11:26;;;;;;;3.30;2.80;;;7.10;97.40;;;;;;5029037;28;20207;-85
2024/03/21 05:13:54;;;;;;;2.92;2.63;;;7.10;97.60;;;;;;5030483;28;20229;-84
2024/03/21 05:16:20;;;;;;;4.22;2.20;;;7.10;97.60;;;;;;5032050;28;20206;-83
2024/03/21 05:18:48;;;;;;;3.15;2.10;;;7.10;97.60;;;;;;5027669;28;20749;-84
2024/03/21 05:21:14;;;;;;;4.47;2.40;;;7.10;97.40;;;;;;5029152;28;20209;-85
2024/03/21 05:23:41;;;;;;;3.80;2.40;;;7.10;97.50;;;;;;5030833;28;20194;-83
2024/03/21 05:26:06;;;;;;;2.83;2.50;;;7.00;98.10;;;;;;5024178;28;20664;-83
2024/03/21 05:28:33;;;;;;;4.70;2.78;;;7.00;98.10;;;;;;5025289;28;20210;-85
2024/03/21 05:31:18;;;;;;;4.20;2.88;;;7.00;98.10;;;;;;5030545;28;20639;-85
2024/03/21 05:33:45;;;;;;;5.15;3.38;;;7.00;98.10;;;;;;5032197;28;20191;-85
2024/03/21 05:36:11;;;;;;;4.93;3.70;;;7.10;98.10;;;;;;5031353;28;20198;-83
2024/03/21 05:38:37;;;;;;;5.63;3.88;;;7.10;98.30;;;;;;5028915;28;20210;-83
2024/03/21 05:41:03;;;;;;;4.82;2.67;;;7.10;98.40;;;;;;5032700;28;20239;-83
2024/03/21 05:43:30;;;;;;;3.90;2.45;;;7.20;98.20;;;;;;5028831;28;20230;-84
2024/03/21 05:45:56;;;;;;;4.40;2.38;;;7.30;98.00;;;;;;5031742;28;20230;-83
2024/03/21 05:48:24;;;;;;;2.88;1.98;;;7.40;97.50;;;;;;5025066;28;20674;-83
2024/03/21 05:50:50;;;;;;;7.10;2.30;;;7.40;97.20;;;;;;5031866;28;20225;-86
2024/03/21 05:53:17;;;;;;;4.05;2.30;;;7.40;97.30;;;;;;5028395;28;20210;-85
2024/03/21 05:55:43;;;;;;;2.90;2.35;;;7.50;97.30;;;;;;5031151;28;20230;-85
2024/03/21 05:58:10;;;;;;;2.30;2.08;;;7.60;97.50;;;;;;5029666;28;20286;-85
2024/03/21 06:00:35;;;;;;;2.70;2.20;;;7.70;97.30;;;;;;5029608;28;20194;-85
2024/03/21 06:03:03;;;;;;;5.38;2.00;;;7.70;97.00;;;;;;5027699;28;20205;-85
2024/03/21 06:05:30;;;;;;;2.47;1.80;;;7.80;97.00;;;;;;5027162;28;20552;-85
2024/03/21 06:07:57;;;;;;;3.05;2.20;;;7.90;97.30;;;;;;5030657;28;20259;-84
2024/03/21 06:10:23;;;;;;;2.63;1.90;;;8.00;97.10;;;;;;5019771;28;20202;-85
2024/03/21 06:12:49;;;;;;;3.13;2.10;;;8.00;96.70;;;;;;5030918;28;20203;-84
2024/03/21 06:15:15;;;;;;;4.32;2.38;;;8.10;96.40;;;;;;5034634;28;20210;-84
2024/03/21 06:17:43;;;;;;;2.17;1.98;;;8.20;96.60;;;;;;5027160;28;20202;-83
2024/03/21 06:20:09;;;;;;;2.72;2.00;;;8.40;96.40;;;;;;5031962;28;20684;-84
2024/03/21 06:22:41;;;;;;;2.95;2.15;;;8.70;95.90;;;;;;5025491;28;20293;-84
2024/03/21 06:25:08;;;;;;;3.63;2.00;;;9.00;95.30;;;;;;5029415;28;20252;-84
2024/03/21 06:27:35;;;;;;;5.28;2.25;;;9.20;94.70;;;;;;5027534;28;20297;-86
2024/03/21 06:30:01;;;;;;;4.72;2.10;;;9.50;92.80;;;;;;5006664;28;20214;-85
2024/03/21 06:32:27;;;;;;;3.47;1.83;;;9.80;90.60;;;;;;5029715;28;20252;-85
2024/03/21 06:34:53;;;;;;;2.70;2.38;;;10.10;89.30;;;;;;5029033;28;20195;-85
2024/03/21 06:37:20;;;;;;;2.65;2.05;;;10.30;85.40;;;;;;5031786;28;20673;-83
2024/03/21 06:39:47;;;;;;;4.70;2.20;;;10.50;83.30;;;;;;5033929;28;20195;-83
2024/03/21 06:42:14;;;;;;;4.30;2.25;;;10.70;80.10;;;;;;5030434;28;20221;-84
2024/03/21 06:44:40;;;;;;;4.15;2.10;;;10.80;80.10;;;;;;5029511;28;20214;-83
2024/03/21 06:47:07;;;;;;;3.53;2.40;;;10.90;80.80;;;;;;5031692;28;20224;-83
2024/03/21 06:49:33;;;;;;;5.25;2.40;;;11.00;80.10;;;;;;5031172;28;20207;-83
2024/03/21 06:51:59;;;;;;;4.28;1.90;;;11.10;81.80;;;;;;5028416;28;21051;-83
2024/03/21 06:54:25;;;;;;;2.63;2.05;;;11.10;76.00;;;;;;5036334;28;20195;-83
2024/03/21 06:56:54;;;;;;;4.20;1.73;;;11.20;74.40;;;;;;5026919;28;20200;-83
2024/03/21 06:59:19;;;;;;;3.40;1.83;;;11.40;72.30;;;;;;5022507;28;20214;-83
2024/03/21 07:01:46;;;;;;;2.28;1.45;;;11.50;70.10;;;;;;5033282;28;20200;-83
2024/03/21 07:04:12;;;;;;;3.03;1.50;;;11.50;68.00;;;;;;5032111;28;20198;-83
2024/03/21 07:06:39;;;;;;;4.78;1.88;;;11.50;69.20;;;;;;5034099;28;20234;-83
2024/03/21 07:09:05;;;;;;;2.03;1.83;;;11.50;71.00;;;;;;5029293;28;20198;-84
2024/03/21 07:11:31;;;;;;;2.03;1.70;;;11.60;71.60;;;;;;5032817;28;20202;-85
2024/03/21 07:14:01;;;;;;;3.90;1.70;;;11.60;71.40;;;;;;5034750;28;20209;-84
2024/03/21 07:16:28;;;;;;;4.28;2.05;;;11.60;71.90;;;;;;5046601;28;20230;-83
2024/03/21 07:18:54;;;;;;;4.28;1.90;;;11.70;72.40;;;;;;5011141;28;20203;-83
2024/03/21 07:21:21;;;;;;;4.45;2.10;;;11.90;72.60;;;;;;5034216;28;20605;-83
2024/03/21 07:23:47;;;;;;;2.67;1.98;;;12.10;70.60;;;;;;5029638;28;20209;-83
2024/03/21 07:26:13;;;;;;;3.30;2.10;;;12.40;67.00;;;;;;5035981;28;20226;-84
2024/03/21 07:28:40;;;;;;;2.45;1.80;;;12.80;63.80;;;;;;5033077;28;20613;-84
2024/03/21 07:31:08;;;;;;;4.32;2.00;;;13.30;58.50;;;;;;5036395;28;20208;-83
2024/03/21 07:33:34;;;;;;;3.35;1.95;;;13.50;55.70;;;;;;5037605;28;20675;-83
2024/03/21 07:36:01;;;;;;;2.85;2.17;;;13.90;51.00;;;;;;5033477;28;20206;-83
2024/03/21 07:38:27;;;;;;;4.10;1.95;;;14.30;47.90;;;;;;5032768;28;20249;-84
2024/03/21 07:40:55;;;;;;;3.10;1.90;;;14.60;45.00;;;;;;5034102;28;20206;-83
2024/03/21 07:43:21;;;;;;;2.85;1.88;;;15.00;40.60;;;;;;5032756;28;20222;-84
2024/03/21 07:45:48;;;;;;;4.93;1.90;;;15.10;40.40;;;;;;5029344;28;20210;-84
2024/03/21 07:48:15;;;;;;;6.35;2.05;;;15.00;39.30;;;;;;5029312;28;20578;-83
2024/03/21 07:50:42;;;;;;;5.63;2.33;;;15.40;39.60;;;;;;5037741;28;20288;-84
2024/03/21 07:53:08;;;;;;;3.42;1.92;;;15.50;37.90;;;;;;5044786;28;20218;-84
2024/03/21 07:55:35;;;;;;;4.03;1.90;;;15.50;37.50;;;;;;5038534;28;20205;-84
2024/03/21 07:58:01;;;;;;;4.00;1.80;;;15.60;37.10;;;;;;5029605;28;20194;-83
2024/03/21 08:00:28;;;;;;;3.85;2.30;;;15.80;36.80;;;;;;5035684;28;20221;-83
2024/03/21 08:02:54;;;;;;;2.60;2.08;;;15.90;36.70;;;;;;5031704;28;20656;-84
2024/03/21 08:05:22;;;;;;;3.08;2.13;;;16.10;34.90;;;;;;5040971;28;20208;-83
2024/03/21 08:07:48;;;;;;;5.50;2.10;;;16.20;33.60;;;;;;5032141;28;20226;-87
2024/03/21 08:10:15;;;;;;;4.95;2.05;;;16.20;34.30;;;;;;5034555;28;20290;-83
2024/03/21 08:12:41;;;;;;;3.13;1.95;;;16.10;35.20;;;;;;5037979;28;20199;-84
2024/03/21 08:15:09;;;;;;;4.50;1.98;;;16.10;35.40;;;;;;5035181;28;20209;-83
2024/03/21 08:17:35;;;;;;;3.85;1.98;;;16.00;34.70;;;;;;5035333;28;20570;-84
2024/03/21 08:20:03;;;;;;;4.90;2.00;;;16.10;34.70;;;;;;5029562;28;20191;-84
2024/03/21 08:22:30;;;;;;;5.80;2.05;;;16.20;36.40;;;;;;5031825;28;20246;-84
2024/03/21 08:24:57;;;;;;;3.10;2.10;;;16.30;34.30;;;;;;5021428;28;20206;-86
2024/03/21 08:27:23;;;;;;;6.18;2.20;;;16.20;34.20;;;;;;5028766;28;20234;-84
2024/03/21 08:29:50;;;;;;;12.20;2.33;;;16.20;34.50;;;;;;5033505;28;20195;-84
2024/03/21 08:32:18;;;;;;;3.67;2.38;;;16.00;35.70;;;;;;5031271;28;20199;-83
2024/03/21 08:34:45;;;;;;;2.80;1.88;;;15.80;35.40;;;;;;5032048;28;20268;-83
2024/03/21 08:37:11;;;;;;;9.20;2.35;;;15.70;36.00;;;;;;5033118;28;20203;-83
2024/03/21 08:39:39;;;;;;;6.30;2.25;;;15.70;35.60;;;;;;5026866;28;20198;-84
2024/03/21 08:42:05;;;;;;;2.88;1.92;;;15.90;37.60;;;;;;5035698;28;20198;-84
2024/03/21 08:44:32;;;;;;;2.78;2.22;;;16.10;36.10;;;;;;5035404;28;20344;-83
2024/03/21 08:46:58;;;;;;;2.65;2.05;;;16.20;35.40;;;;;;5036031;28;20221;-85
2024/03/21 08:49:25;;;;;;;5.38;1.95;;;16.40;33.50;;;;;;5033357;28;20194;-83
2024/03/21 08:51:51;;;;;;;7.47;2.50;;;16.90;33.30;;;;;;5032760;28;20202;-83
2024/03/21 08:54:17;;;;;;;3.88;2.20;;;17.20;32.50;;;;;;5036651;28;20198;-83
2024/03/21 08:56:44;;;;;;;2.30;1.80;;;17.10;29.60;;;;;;5028758;28;20194;-83
2024/03/21 08:59:11;;;;;;;4.05;2.00;;;16.60;30.60;;;;;;5033675;28;20206;-84
2024/03/21 09:01:37;;;;;;;4.88;1.95;;;16.30;30.60;;;;;;5026190;28;20201;-83
2024/03/21 09:04:04;;;;;;;4.50;2.17;;;16.00;32.00;;;;;;5008761;28;20649;-84
2024/03/21 09:06:31;;;;;;;5.22;2.17;;;15.80;32.60;;;;;;5026314;28;20236;-83
2024/03/21 09:08:58;;;;;;;2.95;1.92;;;15.50;33.70;;;;;;5037711;28;20228;-84
2024/03/21 09:11:24;;;;;;;3.63;2.05;;;15.50;34.70;;;;;;5030443;28;20194;-84
2024/03/21 09:13:52;;;;;;;8.27;2.53;;;15.50;34.60;;;;;;5029299;28;20203;-83
2024/03/21 09:16:18;;;;;;;3.40;2.08;;;15.40;35.80;;;;;;5031404;28;20201;-86
2024/03/21 09:18:45;;;;;;;13.40;9.45;;;15.50;35.60;;;;;;5028184;28;20604;-84
2024/03/21 09:21:12;;;;;;;3.80;1.90;;;15.50;39.00;;;;;;5034775;28;20201;-83
2024/03/21 09:23:39;;;;;;;5.10;2.30;;;15.30;44.90;;;;;;5034635;28;20194;-83
2024/03/21 09:26:06;;;;;;;5.35;2.20;;;14.90;52.60;;;;;;5032764;28;20206;-83
2024/03/21 09:28:32;;;;;;;5.10;2.30;;;14.50;62.30;;;;;;5029413;28;20199;-83
2024/03/21 09:31:00;;;;;;;6.90;2.45;;;14.10;74.70;;;;;;5029306;28;20198;-83
2024/03/21 09:33:26;;;;;;;4.10;2.72;;;13.80;76.90;;;;;;5029951;28;20268;-83
2024/03/21 09:35:59;;;;;;;5.25;2.63;;;13.50;82.70;;;;;;5029990;28;20195;-83
2024/03/21 09:38:26;;;;;;;4.60;2.80;;;13.30;83.50;;;;;;5030902;28;20241;-83
2024/03/21 09:40:53;;;;;;;7.70;3.13;;;13.20;87.20;;;;;;5036327;28;20604;-83
2024/03/21 09:43:19;;;;;;;3.85;2.45;;;13.00;90.40;;;;;;5031523;28;20267;-83
2024/03/21 09:45:46;;;;;;;3.00;2.60;;;13.00;90.30;;;;;;5033764;28;20567;-83
2024/03/21 09:48:14;;;;;;;3.78;2.55;;;13.00;90.30;;;;;;5030442;28;20226;-83
2024/03/21 09:50:42;;;;;;;5.75;3.08;;;12.90;90.90;;;;;;5027372;28;20209;-83
2024/03/21 09:53:13;;;;;;;4.95;2.90;;;12.80;90.90;;;;;;5031554;28;20221;-83
2024/03/21 09:55:41;;;;;;;5.95;3.10;;;12.60;92.50;;;;;;5034000;28;20210;-85
2024/03/21 09:58:11;;;;;;;3.80;3.33;;;12.40;93.60;;;;;;5034226;28;20245;-83
2024/03/21 10:00:38;;;;;;;5.60;3.17;;;12.30;94.50;;;;;;5025705;28;20218;-83
2024/03/21 10:03:05;;;;;;;4.32;3.13;;;12.30;95.70;;;;;;5031032;28;20195;-83
2024/03/21 10:05:33;;;;;;;6.93;3.35;;;12.20;96.20;;;;;;5033220;28;20241;-84
2024/03/21 10:07:59;;;;;;;3.58;2.97;;;12.20;96.80;;;;;;5029860;28;20712;-83
2024/03/21 10:10:27;;;;;;;4.43;3.03;;;12.20;96.20;;;;;;5034272;28;20288;-83
2024/03/21 10:12:53;;;;;;;4.28;3.50;;;12.30;96.30;;;;;;5027541;28;20190;-83
2024/03/21 10:15:19;;;;;;;5.97;3.72;;;12.30;96.30;;;;;;5036069;28;20799;-83
2024/03/21 10:17:46;;;;;;;5.57;3.42;;;12.30;96.60;;;;;;5023734;28;20206;-83
2024/03/21 10:20:13;;;;;;;5.32;3.30;;;12.30;96.30;;;;;;5027867;28;20210;-83
2024/03/21 10:22:45;;;;;;;4.15;3.20;;;12.30;96.30;;;;;;5032081;28;20202;-84
2024/03/21 10:25:16;;;;;;;5.47;3.33;;;12.10;97.10;;;;;;5033093;28;20633;-84
2024/03/21 10:27:46;;;;;;;4.88;3.38;;;12.00;98.30;;;;;;5032103;28;20309;-83
2024/03/21 10:30:20;;;;;;;4.40;3.75;;;12.00;99.40;;;;;;5031817;28;20209;-83
2024/03/21 10:32:47;;;;;;;4.40;3.55;;;12.00;99.60;;;;;;5043503;28;20233;-83
2024/03/21 10:35:16;;;;;;;5.68;3.35;;;11.90;99.90;;;;;;5035289;28;20198;-83
2024/03/21 10:37:44;;;;;;;5.35;3.50;;;11.90;99.90;;;;;;5031221;28;20199;-83
2024/03/21 10:40:13;;;;;;;5.07;3.42;;;12.00;99.90;;;;;;5033423;28;20281;-83
2024/03/21 10:42:44;;;;;;;4.03;3.55;;;11.90;99.90;;;;;;5038050;28;20198;-83
2024/03/21 10:45:16;;;;;;;5.32;3.78;;;11.80;99.90;;;;;;5037721;28;20191;-83
2024/03/21 10:47:49;;;;;;;6.82;3.78;;;11.80;99.90;;;;;;5032883;28;20313;-83
2024/03/21 10:50:23;;;;;;;5.72;3.63;;;11.80;99.90;;;;;;5034518;28;20198;-83
2024/03/21 10:52:52;;;;;;;7.35;4.05;;;11.70;99.90;;;;;;5031214;28;20229;-83
2024/03/21 10:55:20;;;;;;;4.85;3.47;;;11.70;99.90;;;;;;5036359;28;20198;-82
2024/03/21 10:57:50;;;;;;;5.72;4.43;;;11.60;99.90;;;;;;5043447;28;20198;-83
2024/03/21 11:00:20;;;;;;;5.28;3.72;;;11.60;99.90;;;;;;5033316;28;20248;-82
2024/03/21 11:02:49;;;;;;;5.05;3.90;;;11.60;99.90;;;;;;5034939;28;20561;-83
2024/03/21 11:05:18;;;;;;;5.80;4.18;;;11.60;99.90;;;;;;5034431;28;20210;-83
2024/03/21 11:07:45;;;;;;;6.45;3.97;;;11.60;99.90;;;;;;5006694;28;20310;-83
2024/03/21 11:10:18;;;;;;;4.68;3.83;;;11.60;99.90;;;;;;5031596;28;20563;-82
2024/03/21 11:12:45;;;;;;;5.15;3.53;;;11.50;99.90;;;;;;5033297;28;20675;-83
2024/03/21 11:15:12;;;;;;;3.55;3.10;;;11.50;99.90;;;;;;5034886;28;20195;-84
2024/03/21 11:17:38;;;;;;;3.45;2.97;;;11.50;99.90;;;;;;5036156;28;20229;-83
2024/03/21 11:20:06;;;;;;;5.95;3.45;;;11.40;99.90;;;;;;5036984;28;20203;-83
2024/03/21 11:22:32;;;;;;;4.93;3.30;;;11.50;99.90;;;;;;5029761;28;20227;-83
2024/03/21 11:25:00;;;;;;;5.65;3.60;;;11.40;99.90;;;;;;5034713;28;20248;-83
2024/03/21 11:27:28;;;;;;;3.65;3.10;;;11.50;99.90;;;;;;5031721;28;20281;-82
2024/03/21 11:29:55;;;;;;;3.33;3.03;;;11.50;99.90;;;;;;5030204;28;20277;-83
2024/03/21 11:32:22;;;;;;;4.68;3.05;;;11.40;99.90;;;;;;5025138;28;20548;-82
2024/03/21 11:34:49;;;;;;;5.05;3.40;;;11.30;99.90;;;;;;5033154;28;20203;-83
2024/03/21 11:37:15;;;;;;;4.35;3.20;;;11.40;99.90;;;;;;5031217;28;20202;-84
2024/03/21 11:39:42;;;;;;;5.05;3.20;;;11.40;99.90;;;;;;5035327;28;20249;-83
2024/03/21 11:42:10;;;;;;;3.22;2.78;;;11.40;99.90;;;;;;5034061;28;20203;-84
2024/03/21 11:44:40;;;;;;;3.42;2.88;;;11.40;99.90;;;;;;5029627;28;20696;-83
2024/03/21 11:47:11;;;;;;;3.00;2.70;;;11.40;99.90;;;;;;5031792;28;20214;-83
2024/03/21 11:49:38;;;;;;;3.72;2.72;;;11.50;99.90;;;;;;5031627;28;20262;-83
2024/03/21 11:52:06;;;;;;;3.00;2.60;;;11.60;99.90;;;;;;5034152;28;20195;-83
2024/03/21 11:54:33;;;;;;;3.05;2.75;;;11.70;99.90;;;;;;5031867;28;20214;-83
2024/03/21 11:56:59;;;;;;;3.53;3.00;;;11.70;99.90;;;;;;5031606;28;20233;-83
2024/03/21 11:59:30;;;;;;;3.42;3.13;;;11.80;99.90;;;;;;5032752;28;20199;-83
2024/03/21 12:01:58;;;;;;;3.53;2.88;;;11.90;99.90;;;;;;5029069;28;20195;-83
2024/03/21 12:04:25;;;;;;;5.43;3.38;;;12.00;99.90;;;;;;5037649;28;20769;-83
2024/03/21 12:06:51;;;;;;;3.97;2.60;;;11.90;99.90;;;;;;5033018;28;20199;-83
2024/03/21 12:09:17;;;;;;;4.07;3.03;;;12.00;99.90;;;;;;5033881;28;20256;-83
2024/03/21 12:11:44;;;;;;;4.03;2.90;;;12.00;99.90;;;;;;5028923;28;20206;-83
2024/03/21 12:14:11;;;;;;;3.72;2.83;;;12.10;99.90;;;;;;5032130;28;20206;-84
2024/03/21 12:16:37;;;;;;;4.60;2.92;;;12.10;99.90;;;;;;5035943;28;20564;-84
2024/03/21 12:19:05;;;;;;;3.92;2.75;;;12.20;99.90;;;;;;5031560;28;20251;-83
2024/03/21 12:21:31;;;;;;;3.45;2.70;;;12.20;99.90;;;;;;5035349;28;20686;-83
2024/03/21 12:23:58;;;;;;;3.05;2.78;;;12.30;99.90;;;;;;5025860;28;20210;-83
2024/03/21 12:26:26;;;;;;;3.67;2.90;;;12.50;99.90;;;;;;5031080;28;20206;-82
2024/03/21 12:28:53;;;;;;;2.95;2.72;;;12.60;99.90;;;;;;5037114;28;20270;-83
2024/03/21 12:31:19;;;;;;;4.13;3.03;;;12.70;99.90;;;;;;5033382;28;20202;-82
2024/03/21 12:33:50;;;;;;;3.30;2.53;;;12.70;99.90;;;;;;5031372;28;20203;-83
2024/03/21 12:36:18;;;;;;;3.00;2.70;;;12.70;99.90;;;;;;5032273;28;20207;-82
2024/03/21 12:38:45;;;;;;;5.50;2.83;;;12.60;99.90;;;;;;5027910;28;20234;-84
2024/03/21 12:41:12;;;;;;;3.35;2.80;;;12.50;99.90;;;;;;5030750;28;20202;-83
2024/03/21 12:43:39;;;;;;;2.75;2.55;;;12.50;99.90;;;;;;5029040;28;20222;-85
2024/03/21 12:46:05;;;;;;;3.47;2.63;;;12.50;99.90;;;;;;5024435;28;20698;-83
2024/03/21 12:48:34;;;;;;;4.53;2.88;;;12.40;99.90;;;;;;5034544;28;20226;-84
2024/03/21 12:51:00;;;;;;;4.70;3.13;;;12.40;99.90;;;;;;5028763;28;20249;-84
2024/03/21 12:53:28;;;;;;;4.82;2.70;;;12.30;99.90;;;;;;5041880;28;20671;-82
2024/03/21 12:55:54;;;;;;;5.28;3.20;;;12.20;99.90;;;;;;5026051;28;20198;-86
2024/03/21 12:58:21;;;;;;;3.42;3.13;;;12.20;99.90;;;;;;5034977;28;20587;-82